Eva-320 — ES2338 — position and weather

sailwx.info

Track history (hours):
 
Tides and Currents Weather Stations Pressure Air Temp Water Temp Dewpoint Dewpoint Depression Visibility Wind Speed Wind Dir Waves Ship Positions

Eva-320

Last reported at 2016-Apr-28 06:16 UTC. Time now 2016-May-02 08:17 UTC.
Position N 59°26' E 027°56'.

Length 20 m; draft 1 m.

Type: Ship. MMSI: 276197000.

Date/timePositionNaut miles runAvg speedWind from/ knotsBaromVisibWave heightAir tempDewpointWater temp
2016-Apr-28 06:16N 59°26' E 027°56'3 4.7
2016-Apr-28 05:33N 59°28' E 028°01'0 0.0
2016-Apr-27 12:24N 59°28' E 028°02'0 0.3
2016-Apr-27 11:33N 59°28' E 028°02'0 0.1
2016-Apr-27 10:30N 59°28' E 028°01'0 0.1
2016-Apr-27 09:33N 59°29' E 028°01'0 0.1
2016-Apr-27 08:30N 59°29' E 028°01'0 0.5
2016-Apr-27 07:33N 59°28' E 028°02'0 0.1
2016-Apr-27 06:14N 59°29' E 028°02'2 0.1
2016-Apr-26 16:29N 59°28' E 027°58'99 2.9
2016-Apr-25 06:23N 59°28' E 024°43'0 0.0
2016-Apr-25 03:29N 59°28' E 024°43'0 0.0
2016-Apr-24 16:23N 59°28' E 024°43'0 0.0
2016-Apr-24 15:17N 59°28' E 024°43'0 0.0
2016-Apr-24 14:23N 59°28' E 024°43'0 0.0
2016-Apr-24 05:29N 59°28' E 024°43'0 0.0
2016-Apr-24 04:17N 59°28' E 024°43'0 0.0
2016-Apr-24 03:11N 59°28' E 024°43'0 0.0
2016-Apr-24 01:17N 59°28' E 024°43'  
2016-Apr-21 10:25N 59°28' E 024°43'  
Track history (hours):
 
Tides and Currents Weather Stations Pressure Air Temp Water Temp Dewpoint Dewpoint Depression Visibility Wind Speed Wind Dir Waves Ship Positions

Eva-320

Last reported at 2016-Apr-28 06:16 UTC. Time now 2016-May-02 08:17 UTC.
Position N 59°26' E 027°56'.

Length 20 m; draft 1 m.

Type: Ship. MMSI: 276197000.

Date/timePositionNaut miles runAvg speedWind from/ knotsBaromVisibWave heightAir tempDewpointWater temp
2016-Apr-28 06:16N 59°26' E 027°56'3 4.7
2016-Apr-28 05:33N 59°28' E 028°01'0 0.0
2016-Apr-27 12:24N 59°28' E 028°02'0 0.3
2016-Apr-27 11:33N 59°28' E 028°02'0 0.1
2016-Apr-27 10:30N 59°28' E 028°01'0 0.1
2016-Apr-27 09:33N 59°29' E 028°01'0 0.1
2016-Apr-27 08:30N 59°29' E 028°01'0 0.5
2016-Apr-27 07:33N 59°28' E 028°02'0 0.1
2016-Apr-27 06:14N 59°29' E 028°02'2 0.1
2016-Apr-26 16:29N 59°28' E 027°58'99 2.9
2016-Apr-25 06:23N 59°28' E 024°43'0 0.0
2016-Apr-25 03:29N 59°28' E 024°43'0 0.0
2016-Apr-24 16:23N 59°28' E 024°43'0 0.0
2016-Apr-24 15:17N 59°28' E 024°43'0 0.0
2016-Apr-24 14:23N 59°28' E 024°43'0 0.0
2016-Apr-24 05:29N 59°28' E 024°43'0 0.0
2016-Apr-24 04:17N 59°28' E 024°43'0 0.0
2016-Apr-24 03:11N 59°28' E 024°43'0 0.0
2016-Apr-24 01:17N 59°28' E 024°43'  
2016-Apr-21 10:25N 59°28' E 024°43'  

Dump ship's entire track history